sensor_id;sensor_type;location;lat;lon;timestamp;pressure;altitude;pressure_sealevel;temperature;humidity
8398;BME280;4236;54.504;9.588;2024-03-23T00:55:15;100674.38;;;5.17;100.00
8398;BME280;4236;54.504;9.588;2024-03-23T00:57:42;100673.06;;;5.13;100.00
8398;BME280;4236;54.504;9.588;2024-03-23T01:00:09;100679.81;;;5.07;100.00
8398;BME280;4236;54.504;9.588;2024-03-23T01:02:36;100672.22;;;5.04;100.00
8398;BME280;4236;54.504;9.588;2024-03-23T01:05:02;100669.06;;;5.00;100.00
8398;BME280;4236;54.504;9.588;2024-03-23T01:07:29;100652.03;;;4.95;100.00
8398;BME280;4236;54.504;9.588;2024-03-23T01:09:56;100654.31;;;4.90;100.00
8398;BME280;4236;54.504;9.588;2024-03-23T01:12:22;100649.53;;;4.85;100.00
8398;BME280;4236;54.504;9.588;2024-03-23T01:14:48;100647.03;;;4.84;100.00
8398;BME280;4236;54.504;9.588;2024-03-23T01:17:15;100650.00;;;4.81;100.00
8398;BME280;4236;54.504;9.588;2024-03-23T01:19:41;100646.88;;;4.77;100.00
8398;BME280;4236;54.504;9.588;2024-03-23T01:22:08;100648.84;;;4.75;100.00
8398;BME280;4236;54.504;9.588;2024-03-23T01:24:35;100643.09;;;4.72;100.00
8398;BME280;4236;54.504;9.588;2024-03-23T01:27:04;100643.09;;;4.72;100.00
8398;BME280;4236;54.504;9.588;2024-03-23T01:29:30;100633.81;;;4.68;100.00
8398;BME280;4236;54.504;9.588;2024-03-23T01:31:56;100638.25;;;4.67;100.00
8398;BME280;4236;54.504;9.588;2024-03-23T01:34:22;100636.78;;;4.65;100.00
8398;BME280;4236;54.504;9.588;2024-03-23T01:36:50;100627.50;;;4.61;100.00
8398;BME280;4236;54.504;9.588;2024-03-23T01:39:16;100628.50;;;4.60;100.00
8398;BME280;4236;54.504;9.588;2024-03-23T01:41:43;100620.09;;;4.56;100.00
8398;BME280;4236;54.504;9.588;2024-03-23T01:44:10;100624.69;;;4.54;100.00
8398;BME280;4236;54.504;9.588;2024-03-23T01:46:37;100628.31;;;4.53;100.00
8398;BME280;4236;54.504;9.588;2024-03-23T01:49:04;100621.38;;;4.52;100.00
8398;BME280;4236;54.504;9.588;2024-03-23T01:51:32;100616.09;;;4.52;100.00
8398;BME280;4236;54.504;9.588;2024-03-23T01:54:00;100610.00;;;4.52;100.00
8398;BME280;4236;54.504;9.588;2024-03-23T01:56:29;100608.50;;;4.49;100.00
8398;BME280;4236;54.504;9.588;2024-03-23T01:58:55;100611.13;;;4.49;100.00
8398;BME280;4236;54.504;9.588;2024-03-23T02:01:24;100614.63;;;4.50;100.00
8398;BME280;4236;54.504;9.588;2024-03-23T02:03:50;100609.47;;;4.48;100.00
8398;BME280;4236;54.504;9.588;2024-03-23T02:06:17;100606.03;;;4.47;100.00
8398;BME280;4236;54.504;9.588;2024-03-23T02:08:43;100601.56;;;4.48;100.00
8398;BME280;4236;54.504;9.588;2024-03-23T02:11:10;100607.84;;;4.47;100.00
8398;BME280;4236;54.504;9.588;2024-03-23T02:13:36;100594.63;;;4.47;100.00
8398;BME280;4236;54.504;9.588;2024-03-23T02:16:04;100595.78;;;4.44;100.00
8398;BME280;4236;54.504;9.588;2024-03-23T02:18:32;100580.94;;;4.43;100.00
8398;BME280;4236;54.504;9.588;2024-03-23T02:20:59;100589.03;;;4.42;100.00
8398;BME280;4236;54.504;9.588;2024-03-23T02:23:26;100574.81;;;4.43;100.00
8398;BME280;4236;54.504;9.588;2024-03-23T02:25:53;100576.94;;;4.39;100.00
8398;BME280;4236;54.504;9.588;2024-03-23T02:28:19;100573.00;;;4.35;100.00
8398;BME280;4236;54.504;9.588;2024-03-23T02:30:46;100573.00;;;4.35;100.00
8398;BME280;4236;54.504;9.588;2024-03-23T02:33:11;100559.44;;;4.30;100.00
8398;BME280;4236;54.504;9.588;2024-03-23T02:35:38;100553.66;;;4.27;100.00
8398;BME280;4236;54.504;9.588;2024-03-23T02:38:04;100555.63;;;4.25;100.00
8398;BME280;4236;54.504;9.588;2024-03-23T02:40:32;100542.75;;;4.22;100.00
8398;BME280;4236;54.504;9.588;2024-03-23T02:42:58;100548.03;;;4.22;100.00
8398;BME280;4236;54.504;9.588;2024-03-23T02:45:25;100545.56;;;4.20;100.00
8398;BME280;4236;54.504;9.588;2024-03-23T02:47:51;100540.75;;;4.16;100.00
8398;BME280;4236;54.504;9.588;2024-03-23T02:50:18;100539.13;;;4.15;100.00
8398;BME280;4236;54.504;9.588;2024-03-23T02:52:44;100542.06;;;4.12;100.00
8398;BME280;4236;54.504;9.588;2024-03-23T02:55:11;100533.63;;;4.08;100.00
8398;BME280;4236;54.504;9.588;2024-03-23T02:57:38;100539.06;;;4.07;100.00
8398;BME280;4236;54.504;9.588;2024-03-23T03:00:06;100540.22;;;4.04;100.00
8398;BME280;4236;54.504;9.588;2024-03-23T03:02:32;100529.97;;;4.01;100.00
8398;BME280;4236;54.504;9.588;2024-03-23T03:04:59;100524.03;;;3.99;100.00
8398;BME280;4236;54.504;9.588;2024-03-23T03:07:25;100519.91;;;3.97;100.00
8398;BME280;4236;54.504;9.588;2024-03-23T03:09:52;100518.44;;;3.94;100.00
8398;BME280;4236;54.504;9.588;2024-03-23T03:12:18;100527.47;;;3.91;100.00
8398;BME280;4236;54.504;9.588;2024-03-23T03:14:46;100514.59;;;3.88;100.00
8398;BME280;4236;54.504;9.588;2024-03-23T03:17:13;100508.97;;;3.83;100.00
8398;BME280;4236;54.504;9.588;2024-03-23T03:19:40;100507.31;;;3.82;100.00
8398;BME280;4236;54.504;9.588;2024-03-23T03:22:06;100497.75;;;3.81;100.00
8398;BME280;4236;54.504;9.588;2024-03-23T03:24:32;100496.09;;;3.80;100.00
8398;BME280;4236;54.504;9.588;2024-03-23T03:26:58;100488.34;;;3.79;100.00
8398;BME280;4236;54.504;9.588;2024-03-23T03:29:25;100490.16;;;3.78;100.00
8398;BME280;4236;54.504;9.588;2024-03-23T03:31:52;100492.13;;;3.76;100.00
8398;BME280;4236;54.504;9.588;2024-03-23T03:34:19;100497.56;;;3.75;100.00
8398;BME280;4236;54.504;9.588;2024-03-23T03:36:45;100495.06;;;3.73;100.00
8398;BME280;4236;54.504;9.588;2024-03-23T03:39:12;100497.03;;;3.71;100.00
8398;BME280;4236;54.504;9.588;2024-03-23T03:41:38;100489.78;;;3.73;100.00
8398;BME280;4236;54.504;9.588;2024-03-23T03:44:04;100484.69;;;3.72;100.00
8398;BME280;4236;54.504;9.588;2024-03-23T03:46:30;100481.09;;;3.73;100.00
8398;BME280;4236;54.504;9.588;2024-03-23T03:48:58;100475.94;;;3.71;100.00
8398;BME280;4236;54.504;9.588;2024-03-23T03:51:24;100472.47;;;3.71;100.00
8398;BME280;4236;54.504;9.588;2024-03-23T03:53:51;100471.00;;;3.68;100.00
8398;BME280;4236;54.504;9.588;2024-03-23T03:56:17;100470.47;;;3.65;100.00
8398;BME280;4236;54.504;9.588;2024-03-23T03:58:43;100461.09;;;3.62;100.00
8398;BME280;4236;54.504;9.588;2024-03-23T04:01:09;100457.13;;;3.58;100.00
8398;BME280;4236;54.504;9.588;2024-03-23T04:03:37;100457.59;;;3.54;100.00
8398;BME280;4236;54.504;9.588;2024-03-23T04:06:06;100464.00;;;3.51;100.00
8398;BME280;4236;54.504;9.588;2024-03-23T04:08:33;100457.38;;;3.47;100.00
8398;BME280;4236;54.504;9.588;2024-03-23T04:10:59;100449.78;;;3.44;100.00
8398;BME280;4236;54.504;9.588;2024-03-23T04:13:26;100449.13;;;3.42;100.00
8398;BME280;4236;54.504;9.588;2024-03-23T04:15:54;100445.66;;;3.42;100.00
8398;BME280;4236;54.504;9.588;2024-03-23T04:18:20;100447.34;;;3.43;100.00
8398;BME280;4236;54.504;9.588;2024-03-23T04:20:46;100439.56;;;3.41;100.00
8398;BME280;4236;54.504;9.588;2024-03-23T04:23:15;100448.16;;;3.43;100.00
8398;BME280;4236;54.504;9.588;2024-03-23T04:25:41;100450.81;;;3.43;100.00
8398;BME280;4236;54.504;9.588;2024-03-23T04:28:07;100445.34;;;3.45;100.00
8398;BME280;4236;54.504;9.588;2024-03-23T04:30:33;100448.97;;;3.44;100.00
8398;BME280;4236;54.504;9.588;2024-03-23T04:33:00;100442.72;;;3.45;100.00
8398;BME280;4236;54.504;9.588;2024-03-23T04:35:26;100441.75;;;3.46;100.00
8398;BME280;4236;54.504;9.588;2024-03-23T04:37:53;100438.09;;;3.47;100.00
8398;BME280;4236;54.504;9.588;2024-03-23T04:40:22;100441.75;;;3.46;100.00
8398;BME280;4236;54.504;9.588;2024-03-23T04:42:49;100440.09;;;3.45;100.00
8398;BME280;4236;54.504;9.588;2024-03-23T04:45:16;100433.16;;;3.44;100.00
8398;BME280;4236;54.504;9.588;2024-03-23T04:47:43;100426.91;;;3.45;100.00
8398;BME280;4236;54.504;9.588;2024-03-23T04:50:10;100427.06;;;3.43;100.00
8398;BME280;4236;54.504;9.588;2024-03-23T04:52:37;100430.50;;;3.44;100.00
8398;BME280;4236;54.504;9.588;2024-03-23T04:55:04;100429.72;;;3.43;100.00
8398;BME280;4236;54.504;9.588;2024-03-23T04:57:32;100427.88;;;3.44;100.00
8398;BME280;4236;54.504;9.588;2024-03-23T04:59:58;100429.53;;;3.45;100.00
8398;BME280;4236;54.504;9.588;2024-03-23T05:02:25;100425.09;;;3.45;100.00
8398;BME280;4236;54.504;9.588;2024-03-23T05:04:51;100435.31;;;3.48;100.00
8398;BME280;4236;54.504;9.588;2024-03-23T05:07:18;100430.06;;;3.48;100.00
8398;BME280;4236;54.504;9.588;2024-03-23T05:09:44;100423.81;;;3.49;100.00
8398;BME280;4236;54.504;9.588;2024-03-23T05:12:10;100428.91;;;3.51;100.00
8398;BME280;4236;54.504;9.588;2024-03-23T05:14:38;100420.84;;;3.52;100.00
8398;BME280;4236;54.504;9.588;2024-03-23T05:17:05;100418.22;;;3.52;100.00
8398;BME280;4236;54.504;9.588;2024-03-23T05:19:30;100412.63;;;3.55;100.00
8398;BME280;4236;54.504;9.588;2024-03-23T05:21:57;100407.19;;;3.57;100.00
8398;BME280;4236;54.504;9.588;2024-03-23T05:24:23;100403.38;;;3.59;100.00
8398;BME280;4236;54.504;9.588;2024-03-23T05:26:50;100402.41;;;3.60;100.00
8398;BME280;4236;54.504;9.588;2024-03-23T05:29:16;100395.16;;;3.62;100.00
8398;BME280;4236;54.504;9.588;2024-03-23T05:31:44;100401.13;;;3.64;100.00
8398;BME280;4236;54.504;9.588;2024-03-23T05:34:14;100410.53;;;3.67;100.00
8398;BME280;4236;54.504;9.588;2024-03-23T05:36:41;100401.47;;;3.69;100.00
8398;BME280;4236;54.504;9.588;2024-03-23T05:39:07;100398.66;;;3.71;100.00
8398;BME280;4236;54.504;9.588;2024-03-23T05:41:34;100399.97;;;3.75;100.00
8398;BME280;4236;54.504;9.588;2024-03-23T05:44:02;100396.19;;;3.77;100.00
8398;BME280;4236;54.504;9.588;2024-03-23T05:46:29;100393.75;;;3.84;100.00
8398;BME280;4236;54.504;9.588;2024-03-23T05:49:01;100399.72;;;3.94;100.00
8398;BME280;4236;54.504;9.588;2024-03-23T05:51:28;100398.06;;;4.01;100.00
8398;BME280;4236;54.504;9.588;2024-03-23T05:53:54;100399.91;;;4.09;100.00
8398;BME280;4236;54.504;9.588;2024-03-23T05:56:21;100393.97;;;4.15;100.00
8398;BME280;4236;54.504;9.588;2024-03-23T05:58:47;100391.00;;;4.18;100.00
8398;BME280;4236;54.504;9.588;2024-03-23T06:01:14;100393.63;;;4.26;100.00
8398;BME280;4236;54.504;9.588;2024-03-23T06:03:40;100386.53;;;4.34;100.00
8398;BME280;4236;54.504;9.588;2024-03-23T06:06:08;100395.13;;;4.44;100.00
8398;BME280;4236;54.504;9.588;2024-03-23T06:08:37;100385.38;;;4.61;100.00
8398;BME280;4236;54.504;9.588;2024-03-23T06:11:04;100374.44;;;4.88;100.00
8398;BME280;4236;54.504;9.588;2024-03-23T06:13:31;100376.53;;;5.48;100.00
8398;BME280;4236;54.504;9.588;2024-03-23T06:15:59;100379.06;;;6.03;100.00
8398;BME280;4236;54.504;9.588;2024-03-23T06:18:25;100385.97;;;6.49;100.00
8398;BME280;4236;54.504;9.588;2024-03-23T06:20:52;100378.47;;;7.05;100.00
8398;BME280;4236;54.504;9.588;2024-03-23T06:23:19;100378.72;;;7.54;100.00
8398;BME280;4236;54.504;9.588;2024-03-23T06:25:46;100383.50;;;7.79;100.00
8398;BME280;4236;54.504;9.588;2024-03-23T06:28:12;100374.75;;;7.79;100.00
8398;BME280;4236;54.504;9.588;2024-03-23T06:30:39;100367.78;;;7.78;100.00
8398;BME280;4236;54.504;9.588;2024-03-23T06:33:05;100359.69;;;8.07;100.00
8398;BME280;4236;54.504;9.588;2024-03-23T06:35:32;100354.41;;;8.50;100.00
8398;BME280;4236;54.504;9.588;2024-03-23T06:37:57;100355.22;;;8.50;100.00
8398;BME280;4236;54.504;9.588;2024-03-23T06:40:26;100340.72;;;8.53;100.00
8398;BME280;4236;54.504;9.588;2024-03-23T06:42:51;100354.00;;;8.53;100.00
8398;BME280;4236;54.504;9.588;2024-03-23T06:45:18;100343.75;;;8.50;100.00
8398;BME280;4236;54.504;9.588;2024-03-23T06:47:48;100348.63;;;8.46;100.00
8398;BME280;4236;54.504;9.588;2024-03-23T06:50:15;100346.19;;;8.45;100.00
8398;BME280;4236;54.504;9.588;2024-03-23T06:52:41;100340.88;;;8.45;100.00
8398;BME280;4236;54.504;9.588;2024-03-23T06:55:08;100344.09;;;8.40;100.00
8398;BME280;4236;54.504;9.588;2024-03-23T06:57:35;100347.78;;;8.39;100.00
8398;BME280;4236;54.504;9.588;2024-03-23T07:00:02;100348.88;;;8.51;100.00
8398;BME280;4236;54.504;9.588;2024-03-23T07:02:28;100345.38;;;8.72;100.00
8398;BME280;4236;54.504;9.588;2024-03-23T07:04:55;100344.44;;;8.58;100.00
8398;BME280;4236;54.504;9.588;2024-03-23T07:07:22;100342.38;;;8.54;100.00
8398;BME280;4236;54.504;9.588;2024-03-23T07:09:49;100336.94;;;8.41;100.00
8398;BME280;4236;54.504;9.588;2024-03-23T07:12:14;100336.94;;;8.41;100.00
8398;BME280;4236;54.504;9.588;2024-03-23T07:14:43;100343.63;;;8.30;100.00
8398;BME280;4236;54.504;9.588;2024-03-23T07:17:08;100328.41;;;8.24;100.00
8398;BME280;4236;54.504;9.588;2024-03-23T07:19:35;100330.94;;;8.11;100.00
8398;BME280;4236;54.504;9.588;2024-03-23T07:22:01;100334.41;;;8.11;100.00
8398;BME280;4236;54.504;9.588;2024-03-23T07:24:28;100324.72;;;8.46;100.00
8398;BME280;4236;54.504;9.588;2024-03-23T07:26:56;100322.25;;;8.72;100.00
8398;BME280;4236;54.504;9.588;2024-03-23T07:29:23;100320.00;;;9.04;100.00
8398;BME280;4236;54.504;9.588;2024-03-23T07:31:50;100315.63;;;9.30;100.00
8398;BME280;4236;54.504;9.588;2024-03-23T07:34:17;100308.28;;;9.39;100.00
8398;BME280;4236;54.504;9.588;2024-03-23T07:36:43;100307.50;;;9.52;100.00
8398;BME280;4236;54.504;9.588;2024-03-23T07:39:09;100305.44;;;9.47;100.00
8398;BME280;4236;54.504;9.588;2024-03-23T07:41:35;100301.31;;;9.38;100.00
8398;BME280;4236;54.504;9.588;2024-03-23T07:44:02;100308.53;;;9.57;100.00
8398;BME280;4236;54.504;9.588;2024-03-23T07:46:28;100302.47;;;9.89;100.00
8398;BME280;4236;54.504;9.588;2024-03-23T07:48:56;100294.28;;;9.84;100.00
8398;BME280;4236;54.504;9.588;2024-03-23T07:51:22;100301.00;;;9.74;100.00
8398;BME280;4236;54.504;9.588;2024-03-23T07:53:49;100300.00;;;9.81;100.00
8398;BME280;4236;54.504;9.588;2024-03-23T07:56:16;100298.44;;;10.33;100.00
8398;BME280;4236;54.504;9.588;2024-03-23T07:58:44;100292.28;;;10.32;100.00
8398;BME280;4236;54.504;9.588;2024-03-23T08:01:11;100285.94;;;10.14;100.00
8398;BME280;4236;54.504;9.588;2024-03-23T08:03:39;100281.97;;;9.90;100.00
8398;BME280;4236;54.504;9.588;2024-03-23T08:06:11;100281.31;;;9.62;100.00
8398;BME280;4236;54.504;9.588;2024-03-23T08:08:38;100277.97;;;9.33;100.00
8398;BME280;4236;54.504;9.588;2024-03-23T08:11:05;100274.56;;;9.05;100.00
8398;BME280;4236;54.504;9.588;2024-03-23T08:13:32;100272.03;;;8.84;100.00
8398;BME280;4236;54.504;9.588;2024-03-23T08:15:58;100274.13;;;8.61;100.00
8398;BME280;4236;54.504;9.588;2024-03-23T08:18:25;100271.19;;;8.49;100.00
8398;BME280;4236;54.504;9.588;2024-03-23T08:20:58;100264.00;;;8.43;100.00
8398;BME280;4236;54.504;9.588;2024-03-23T08:23:27;100276.38;;;8.29;100.00
8398;BME280;4236;54.504;9.588;2024-03-23T08:25:57;100273.72;;;8.08;100.00
8398;BME280;4236;54.504;9.588;2024-03-23T08:28:24;100275.38;;;7.88;100.00
8398;BME280;4236;54.504;9.588;2024-03-23T08:30:50;100264.38;;;7.70;100.00
8398;BME280;4236;54.504;9.588;2024-03-23T08:33:17;100270.16;;;7.59;100.00
8398;BME280;4236;54.504;9.588;2024-03-23T08:35:43;100268.97;;;7.82;100.00
8398;BME280;4236;54.504;9.588;2024-03-23T08:38:18;100261.34;;;8.22;100.00
8398;BME280;4236;54.504;9.588;2024-03-23T08:40:46;100252.97;;;8.46;100.00
8398;BME280;4236;54.504;9.588;2024-03-23T08:43:12;100252.53;;;8.15;100.00
8398;BME280;4236;54.504;9.588;2024-03-23T08:45:38;100250.13;;;7.99;100.00
8398;BME280;4236;54.504;9.588;2024-03-23T08:48:05;100247.75;;;7.82;100.00
8398;BME280;4236;54.504;9.588;2024-03-23T08:50:32;100251.41;;;8.03;100.00
8398;BME280;4236;54.504;9.588;2024-03-23T08:52:59;100254.13;;;8.37;100.00
8398;BME280;4236;54.504;9.588;2024-03-23T08:55:24;100244.31;;;8.65;100.00
8398;BME280;4236;54.504;9.588;2024-03-23T08:57:52;100243.47;;;9.06;100.00
8398;BME280;4236;54.504;9.588;2024-03-23T09:00:18;100236.22;;;9.47;100.00
8398;BME280;4236;54.504;9.588;2024-03-23T09:02:47;100228.50;;;9.78;100.00
8398;BME280;4236;54.504;9.588;2024-03-23T09:05:13;100208.84;;;10.12;100.00
8398;BME280;4236;54.504;9.588;2024-03-23T09:07:40;100212.28;;;10.45;100.00
8398;BME280;4236;54.504;9.588;2024-03-23T09:10:07;100202.19;;;10.61;100.00
8398;BME280;4236;54.504;9.588;2024-03-23T09:12:34;100204.56;;;10.88;100.00
8398;BME280;4236;54.504;9.588;2024-03-23T09:15:01;100205.25;;;10.71;100.00
8398;BME280;4236;54.504;9.588;2024-03-23T09:17:28;100209.44;;;10.47;100.00
8398;BME280;4236;54.504;9.588;2024-03-23T09:19:54;100215.19;;;10.11;100.00
8398;BME280;4236;54.504;9.588;2024-03-23T09:22:22;100209.66;;;9.67;100.00
8398;BME280;4236;54.504;9.588;2024-03-23T09:24:47;100209.66;;;10.06;100.00
8398;BME280;4236;54.504;9.588;2024-03-23T09:27:14;100213.34;;;10.25;100.00
8398;BME280;4236;54.504;9.588;2024-03-23T09:29:40;100203.31;;;10.27;100.00
8398;BME280;4236;54.504;9.588;2024-03-23T09:32:08;100204.69;;;10.49;100.00
8398;BME280;4236;54.504;9.588;2024-03-23T09:34:34;100191.34;;;10.62;100.00
8398;BME280;4236;54.504;9.588;2024-03-23T09:37:01;100198.28;;;10.70;100.00
8398;BME280;4236;54.504;9.588;2024-03-23T09:39:27;100177.53;;;10.78;100.00
8398;BME280;4236;54.504;9.588;2024-03-23T09:41:56;100190.66;;;10.80;100.00
8398;BME280;4236;54.504;9.588;2024-03-23T09:44:24;100184.78;;;10.51;100.00
8398;BME280;4236;54.504;9.588;2024-03-23T09:46:51;100192.44;;;10.41;100.00
8398;BME280;4236;54.504;9.588;2024-03-23T09:49:19;100186.88;;;10.36;100.00
8398;BME280;4236;54.504;9.588;2024-03-23T09:51:45;100183.84;;;10.20;100.00
8398;BME280;4236;54.504;9.588;2024-03-23T09:54:12;100180.56;;;9.98;100.00
8398;BME280;4236;54.504;9.588;2024-03-23T09:56:38;100179.94;;;9.89;100.00
8398;BME280;4236;54.504;9.588;2024-03-23T09:59:05;100172.78;;;10.03;100.00
8398;BME280;4236;54.504;9.588;2024-03-23T10:01:32;100183.25;;;10.18;100.00
8398;BME280;4236;54.504;9.588;2024-03-23T10:03:59;100181.00;;;10.15;100.00
8398;BME280;4236;54.504;9.588;2024-03-23T10:06:26;100185.28;;;10.22;100.00
8398;BME280;4236;54.504;9.588;2024-03-23T10:08:53;100177.03;;;10.50;100.00
8398;BME280;4236;54.504;9.588;2024-03-23T10:14:28;100185.31;;;10.86;100.00
8398;BME280;4236;54.504;9.588;2024-03-23T10:17:11;100181.00;;;10.79;100.00
8398;BME280;4236;54.504;9.588;2024-03-23T10:19:39;100176.31;;;10.81;100.00
8398;BME280;4236;54.504;9.588;2024-03-23T10:22:08;100177.34;;;11.18;100.00
8398;BME280;4236;54.504;9.588;2024-03-23T10:24:34;100171.47;;;11.40;100.00
8398;BME280;4236;54.504;9.588;2024-03-23T10:27:01;100173.22;;;11.22;100.00
8398;BME280;4236;54.504;9.588;2024-03-23T10:29:27;100172.78;;;11.25;100.00
8398;BME280;4236;54.504;9.588;2024-03-23T10:39:23;100172.81;;;11.18;100.00
8398;BME280;4236;54.504;9.588;2024-03-23T10:41:50;100172.66;;;11.44;100.00
8398;BME280;4236;54.504;9.588;2024-03-23T10:44:17;100163.03;;;11.68;100.00
8398;BME280;4236;54.504;9.588;2024-03-23T10:46:45;100165.78;;;11.86;100.00
8398;BME280;4236;54.504;9.588;2024-03-23T10:49:11;100158.00;;;11.85;100.00
8398;BME280;4236;54.504;9.588;2024-03-23T10:51:38;100157.31;;;12.14;100.00
8398;BME280;4236;54.504;9.588;2024-03-23T10:54:04;100167.63;;;11.86;100.00
8398;BME280;4236;54.504;9.588;2024-03-23T10:56:35;100191.66;;;11.61;100.00
8398;BME280;4236;54.504;9.588;2024-03-23T11:04:05;100187.94;;;10.93;100.00
8398;BME280;4236;54.504;9.588;2024-03-23T11:06:34;100177.72;;;11.21;100.00
8398;BME280;4236;54.504;9.588;2024-03-23T11:09:00;100176.06;;;11.27;100.00
8398;BME280;4236;54.504;9.588;2024-03-23T11:11:27;100188.41;;;11.21;100.00
8398;BME280;4236;54.504;9.588;2024-03-23T11:13:54;100187.38;;;11.22;100.00
8398;BME280;4236;54.504;9.588;2024-03-23T11:16:25;100179.03;;;11.05;100.00
8398;BME280;4236;54.504;9.588;2024-03-23T11:18:53;100179.16;;;10.86;100.00
8398;BME280;4236;54.504;9.588;2024-03-23T11:21:52;100178.19;;;10.67;100.00
8398;BME280;4236;54.504;9.588;2024-03-23T11:29:22;100174.81;;;11.29;100.00
8398;BME280;4236;54.504;9.588;2024-03-23T11:31:49;100171.53;;;11.27;100.00
8398;BME280;4236;54.504;9.588;2024-03-23T11:34:15;100159.50;;;11.11;100.00
8398;BME280;4236;54.504;9.588;2024-03-23T11:36:42;100167.81;;;10.97;100.00
8398;BME280;4236;54.504;9.588;2024-03-23T11:39:12;100168.16;;;10.63;100.00
8398;BME280;4236;54.504;9.588;2024-03-23T11:41:49;100186.53;;;10.13;100.00
8398;BME280;4236;54.504;9.588;2024-03-23T11:44:19;100158.66;;;10.02;100.00
8398;BME280;4236;54.504;9.588;2024-03-23T11:51:04;100156.44;;;10.64;100.00
8398;BME280;4236;54.504;9.588;2024-03-23T11:53:30;100148.59;;;10.82;100.00
8398;BME280;4236;54.504;9.588;2024-03-23T11:55:58;100153.84;;;10.50;100.00
8398;BME280;4236;54.504;9.588;2024-03-23T11:58:27;100157.84;;;10.15;100.00
8398;BME280;4236;54.504;9.588;2024-03-23T12:00:56;100150.03;;;10.14;100.00
8398;BME280;4236;54.504;9.588;2024-03-23T12:03:23;100149.22;;;10.13;100.00
8398;BME280;4236;54.504;9.588;2024-03-23T12:05:52;100153.47;;;10.40;100.00
8398;BME280;4236;54.504;9.588;2024-03-23T12:08:25;100137.59;;;10.65;100.00
8398;BME280;4236;54.504;9.588;2024-03-23T12:10:52;100145.72;;;10.83;100.00
8398;BME280;4236;54.504;9.588;2024-03-23T12:13:20;100142.06;;;10.78;100.00
8398;BME280;4236;54.504;9.588;2024-03-23T12:15:47;100145.91;;;10.82;100.00
8398;BME280;4236;54.504;9.588;2024-03-23T12:18:14;100136.47;;;10.86;100.00
8398;BME280;4236;54.504;9.588;2024-03-23T12:20:40;100148.00;;;11.11;100.00
8398;BME280;4236;54.504;9.588;2024-03-23T12:23:08;100150.22;;;11.21;100.00
8398;BME280;4236;54.504;9.588;2024-03-23T12:25:36;100135.75;;;11.03;100.00
8398;BME280;4236;54.504;9.588;2024-03-23T12:28:03;100150.81;;;10.91;100.00
8398;BME280;4236;54.504;9.588;2024-03-23T12:30:32;100142.84;;;11.23;100.00
8398;BME280;4236;54.504;9.588;2024-03-23T12:32:59;100154.72;;;11.20;100.00
8398;BME280;4236;54.504;9.588;2024-03-23T12:35:25;100153.13;;;11.19;100.00
8398;BME280;4236;54.504;9.588;2024-03-23T12:37:51;100139.84;;;11.06;100.00
8398;BME280;4236;54.504;9.588;2024-03-23T12:40:17;100145.00;;;11.01;100.00
8398;BME280;4236;54.504;9.588;2024-03-23T12:42:45;100133.06;;;11.10;100.00
8398;BME280;4236;54.504;9.588;2024-03-23T12:45:11;100142.06;;;11.16;100.00
8398;BME280;4236;54.504;9.588;2024-03-23T12:47:38;100130.50;;;11.22;100.00
8398;BME280;4236;54.504;9.588;2024-03-23T12:50:04;100135.63;;;11.23;100.00
8398;BME280;4236;54.504;9.588;2024-03-23T12:52:32;100142.13;;;11.34;100.00
8398;BME280;4236;54.504;9.588;2024-03-23T12:54:58;100136.06;;;11.51;100.00
8398;BME280;4236;54.504;9.588;2024-03-23T12:57:25;100142.78;;;11.29;100.00
8398;BME280;4236;54.504;9.588;2024-03-23T12:59:53;100153.31;;;10.86;100.00
8398;BME280;4236;54.504;9.588;2024-03-23T13:02:20;100147.78;;;10.30;100.00
8398;BME280;4236;54.504;9.588;2024-03-23T13:04:49;100152.31;;;9.97;100.00
8398;BME280;4236;54.504;9.588;2024-03-23T13:07:16;100154.75;;;9.92;100.00
8398;BME280;4236;54.504;9.588;2024-03-23T13:09:42;100142.06;;;9.94;100.00
8398;BME280;4236;54.504;9.588;2024-03-23T13:12:09;100148.59;;;10.05;100.00
8398;BME280;4236;54.504;9.588;2024-03-23T13:14:35;100135.28;;;10.18;100.00
8398;BME280;4236;54.504;9.588;2024-03-23T13:17:04;100140.72;;;10.49;100.00
8398;BME280;4236;54.504;9.588;2024-03-23T13:19:30;100127.81;;;10.46;100.00
8398;BME280;4236;54.504;9.588;2024-03-23T13:21:57;100131.47;;;10.58;100.00
8398;BME280;4236;54.504;9.588;2024-03-23T13:24:23;100134.47;;;10.75;100.00
8398;BME280;4236;54.504;9.588;2024-03-23T13:26:50;100130.56;;;10.77;100.00
8398;BME280;4236;54.504;9.588;2024-03-23T13:29:17;100129.75;;;10.70;100.00
8398;BME280;4236;54.504;9.588;2024-03-23T13:31:44;100120.47;;;10.86;100.00
8398;BME280;4236;54.504;9.588;2024-03-23T13:34:11;100120.84;;;10.96;100.00
8398;BME280;4236;54.504;9.588;2024-03-23T13:36:38;100126.69;;;10.73;100.00
8398;BME280;4236;54.504;9.588;2024-03-23T13:39:04;100135.41;;;10.42;100.00
8398;BME280;4236;54.504;9.588;2024-03-23T13:41:37;100137.31;;;10.80;100.00
8398;BME280;4236;54.504;9.588;2024-03-23T13:44:03;100130.38;;;11.10;100.00
8398;BME280;4236;54.504;9.588;2024-03-23T13:46:30;100121.22;;;11.31;100.00
8398;BME280;4236;54.504;9.588;2024-03-23T13:48:56;100119.69;;;11.73;100.00
8398;BME280;4236;54.504;9.588;2024-03-23T13:51:25;100106.81;;;11.88;100.00
8398;BME280;4236;54.504;9.588;2024-03-23T13:53:52;100114.72;;;11.76;100.00
8398;BME280;4236;54.504;9.588;2024-03-23T13:56:20;100100.19;;;11.65;99.31
8398;BME280;4236;54.504;9.588;2024-03-23T13:58:45;100118.00;;;11.78;97.69
8398;BME280;4236;54.504;9.588;2024-03-23T14:01:16;100121.88;;;11.51;94.91
8398;BME280;4236;54.504;9.588;2024-03-23T14:03:42;100120.78;;;11.34;91.16
8398;BME280;4236;54.504;9.588;2024-03-23T14:06:10;100122.28;;;11.23;90.20
8398;BME280;4236;54.504;9.588;2024-03-23T14:08:38;100120.31;;;10.74;92.08
8398;BME280;4236;54.504;9.588;2024-03-23T14:11:06;100133.56;;;10.87;96.30
8398;BME280;4236;54.504;9.588;2024-03-23T14:13:32;100130.44;;;10.97;96.33
8398;BME280;4236;54.504;9.588;2024-03-23T14:15:59;100132.72;;;10.93;98.92
8398;BME280;4236;54.504;9.588;2024-03-23T14:18:24;100120.91;;;10.83;99.18
8398;BME280;4236;54.504;9.588;2024-03-23T14:20:52;100145.22;;;10.55;100.00
8398;BME280;4236;54.504;9.588;2024-03-23T14:23:18;100141.81;;;10.28;100.00
8398;BME280;4236;54.504;9.588;2024-03-23T14:25:47;100146.97;;;9.90;100.00